Plaza, Washington
Current Conditions -  °F | °C
As of 2:53 AM on Friday 28 Nov 2014 (Local Time) from KGEG Reporting Station
Few Clouds Few Clouds  
Wind Chill: 39°   Ceiling: Unl
Heat Index: 46°   Visibility: 10mi
Dew Point: 41°   Wind: 17mph
Humidity: 83%   Direction: 210°SSW
Pressure: 29.65"   Gusts: NA
Location:  47.2196°N, 117.453°W
Report Text: KGEG 281053Z 21015KT 10SM FEW040 FEW180 08/05 A2965 RMK AO2 SLP040 T00780050
Loading
Personal Weather Stations






























Interactive Weather Map New forecast layout! Learn more

10-Day Weather Forecast

Advertisements
Track Severe Weather on mobile